Thursday, July 31, 2014
21:45 UTC
  |  Log In   |  Register Free
Airport Search:

Indiana County/Jimmy Stewart Fld/ Airport
(KIDI)

Indiana County/Jimmy Stewart Fld/ Airport Diagram
No Airport Diagram Available

FAA data valid effective July 24, 2014 until September 18, 2014 (unless otherwise noted).

 
 
 
 
 
 
 
 
 
 
 
 
 
 

Current Aviation Weather for Indiana County/Jimmy Stewart Fld/ Airport (KIDI)

The most recent METAR observation for KIDI was updated at: 1835 UTC
METAR Summary (Translated METAR)
KIDI
281835Z AUTO 28006G13KT 9SM BKN016 OVC065 19/17 A2975 RMK A01
KJST
(22.7 nm SE from KIDI)
281843Z AUTO 27013G23KT 6SM -RA FEW009 BKN015 OVC021 16/13 A2975 RMK AO2 RAB35 P0001 T01610133
TAF Summary (Translated TAF)
KJST
(22.7 nm SE from KIDI)
311732Z 3118/0118 27010KT P6SM BKN028 BKN035 FM312230 24007KT P6SM SCT029 BKN035 FM010600 20004KT 5SM BR SCT050
KLBE
(25.5 nm SW from KIDI)
311730Z 3118/0118 23010KT P6SM BKN025 FM311900 24008KT P6SM SCT035 FM010700 VRB03KT 5SM BR SKC FM011400 17005KT P6SM BKN080
  Airport Weather Conditions for KIDI

 Current Weather at IDI
73° F
Partly Cloudy
Variable winds at 4.6 mph
IDI NOAA Radar

Pressure: 30.14 in
Humidity: 69%
Wind: Variable at 4.6 MPH (4 KT)
Dew Point: 62.6°F
Visibility: 10.00 mi


Airport Weather Forecast for KIDI

Translated METAR and TAF for KIDI
Translated METAR for KIDI (2139 UTC 31 July 2014)
found at http://aviationweather.gov/adds/metars/
 
METAR text: KIDI 312135Z AUTO VRB04KT 10SM FEW035 SCT042 BKN049 24/16 A3014 RMK A01
Conditions at: KIDI (INDIANA/STEWART , PA, US) observed 2135 UTC 31 July 2014
Temperature: 24.0°C (75°F)
Dewpoint: 16.0°C (61°F) [RH = 61%]
Pressure (altimeter): 30.14 inches Hg (1020.7 mb)
Winds: variable direction winds at 5 MPH (4 knots; 2.1 m/s)
Visibility: 10 or more miles (16+ km)
Ceiling: 4900 feet AGL
Clouds: few clouds at 3500 feet AGL
scattered clouds at 4200 feet AGL
broken clouds at 4900 feet AGL
Weather: automated observation with no human augmentation;
there may or may not be significant weather present at this time
Translated TAF for KIDI

There is no translated TAF available for this airport

Find All Airport Services Find A Hotel Find A Rental Car Find A Golf Course Find A Restaurant $100 Hamburger



FBO's on the Field
FBO Company Facility Photos Services Transportation Aviation Fuel Prices: Prices include tax
Catering Weather Repair Courtesy Rental Type 100LL JetA JetA+ MOGAS 8087
 
Indiana County Jimmy Stewart Airport

Currently rated 5 by 1 person
FS:Phillips66
Last Updated: Jul-27
Login to update fuel prices
SS:
Contact Indiana County Jimmy Stewart AirportMore FBO Information
 
Add another FBO Facility Photos Catering Weather Repair Courtesy Rental Type 100LL JetA JetA+ MOGAS 8087
Services Transportation Aviation Fuel Prices: Prices include tax


GlobalAir.com Airport Resource Center model-print
model-print
model-print
model-print